Time;durP1;ratioP1;P1;durP2;ratioP2;P2;SDS_P1;SDS_P2;PMS_P1;PMS_P2;Temp;Humidity;BMP_temperature;BMP_pressure;BME280_temperature;BME280_humidity;BME280_pressure;Samples;Min_cycle;Max_cycle;Signal;HPM_P1;HPM_P2
2023/12/31 00:08:21;;;;;;;;;;;3.50;99.90;;;;;;21038806;28;19908;-81
2023/12/31 00:18:21;;;;;;;;;;;3.40;99.90;;;;;;21016261;28;19964;-80
2023/12/31 00:28:22;;;;;;;;;;;3.50;99.90;;;;;;21037641;28;19992;-78
2023/12/31 00:38:23;;;;;;;;;;;3.50;99.90;;;;;;20984325;28;19916;-80
2023/12/31 00:48:23;;;;;;;;;;;3.50;99.90;;;;;;21006838;28;19916;-80
2023/12/31 00:58:25;;;;;;;;;;;3.20;99.90;;;;;;20986761;28;19965;-81
2023/12/31 01:08:25;;;;;;;;;;;3.10;99.90;;;;;;21002454;28;19908;-79
2023/12/31 01:18:26;;;;;;;;;;;2.90;99.90;;;;;;21008587;28;19913;-79
2023/12/31 01:28:27;;;;;;;;;;;3.00;99.90;;;;;;20985535;28;19908;-78
2023/12/31 01:38:27;;;;;;;;;;;3.00;99.90;;;;;;20999664;28;19916;-80
2023/12/31 01:48:28;;;;;;;;;;;3.00;99.90;;;;;;21006446;28;19913;-81
2023/12/31 01:58:29;;;;;;;;;;;3.10;99.90;;;;;;20999719;28;20014;-82
2023/12/31 02:08:30;;;;;;;;;;;3.00;99.90;;;;;;20984429;28;20288;-82
2023/12/31 02:18:31;;;;;;;;;;;2.90;99.90;;;;;;20964767;28;19920;-83
2023/12/31 02:28:31;;;;;;;;;;;2.80;99.90;;;;;;20998341;28;19909;-80
2023/12/31 02:38:32;;;;;;;;;;;2.50;99.90;;;;;;20996829;28;19947;-80
2023/12/31 02:48:32;;;;;;;;;;;2.30;99.90;;;;;;20980752;28;19908;-81
2023/12/31 02:58:33;;;;;;;;;;;2.20;99.90;;;;;;20997998;28;20377;-81
2023/12/31 03:08:34;;;;;;;;;;;2.00;99.90;;;;;;20987550;28;19915;-80
2023/12/31 03:18:34;;;;;;;;;;;1.90;99.90;;;;;;21028123;28;19912;-81
2023/12/31 03:28:36;;;;;;;;;;;1.70;99.90;;;;;;21012733;28;20360;-79
2023/12/31 03:38:36;;;;;;;;;;;1.70;99.90;;;;;;21015028;28;20022;-81
2023/12/31 03:48:37;;;;;;;;;;;1.50;99.90;;;;;;21008223;28;20430;-79
2023/12/31 03:58:37;;;;;;;;;;;1.40;99.90;;;;;;20990348;28;19920;-80
2023/12/31 04:08:38;;;;;;;;;;;1.40;99.90;;;;;;20993901;28;19912;-79
2023/12/31 04:18:39;;;;;;;;;;;1.40;99.90;;;;;;21009136;28;19916;-80
2023/12/31 04:28:39;;;;;;;;;;;1.50;99.90;;;;;;21006457;28;20319;-80
2023/12/31 04:38:40;;;;;;;;;;;1.60;99.90;;;;;;21004487;28;19979;-81
2023/12/31 04:48:41;;;;;;;;;;;1.60;99.90;;;;;;21003489;28;19908;-81
2023/12/31 04:58:41;;;;;;;;;;;1.40;99.90;;;;;;21002397;28;19912;-79
2023/12/31 05:08:43;;;;;;;;;;;1.30;99.90;;;;;;21010880;28;19919;-80
2023/12/31 05:18:46;;;;;;;;;;;1.20;99.90;;;;;;21000871;28;19961;-78
2023/12/31 05:28:46;;;;;;;;;;;1.30;99.90;;;;;;21008647;28;20406;-80
2023/12/31 05:38:47;;;;;;;;;;;1.20;99.90;;;;;;21007845;28;19912;-79
2023/12/31 05:48:47;;;;;;;;;;;1.10;99.90;;;;;;21002738;28;19919;-77
2023/12/31 05:58:48;;;;;;;;;;;1.40;99.90;;;;;;20968235;28;19969;-78
2023/12/31 06:08:49;;;;;;;;;;;1.50;99.90;;;;;;21009895;28;19916;-80
2023/12/31 06:18:50;;;;;;;;;;;1.30;99.90;;;;;;20989821;28;20003;-79
2023/12/31 06:28:50;;;;;;;;;;;1.30;99.90;;;;;;20997893;28;19912;-80
2023/12/31 06:38:51;;;;;;;;;;;1.10;99.90;;;;;;20980831;28;20380;-79
2023/12/31 06:48:52;;;;;;;;;;;0.90;99.90;;;;;;21004905;28;19909;-78
2023/12/31 06:58:52;;;;;;;;;;;0.80;99.90;;;;;;21018447;28;19912;-81
2023/12/31 07:08:53;;;;;;;;;;;0.80;99.90;;;;;;21017647;28;19943;-78
2023/12/31 07:18:54;;;;;;;;;;;0.80;99.90;;;;;;21048642;28;19912;-81
2023/12/31 07:28:55;;;;;;;;;;;0.80;99.90;;;;;;21042742;28;19916;-81
2023/12/31 07:38:56;;;;;;;;;;;0.90;99.90;;;;;;21024553;28;19951;-81
2023/12/31 07:48:57;;;;;;;;;;;1.10;99.90;;;;;;21035317;28;19909;-80
2023/12/31 07:58:57;;;;;;;;;;;1.40;99.90;;;;;;21046441;28;19979;-80
2023/12/31 08:08:58;;;;;;;;;;;1.40;99.90;;;;;;21053877;28;21025;-79
2023/12/31 08:18:59;;;;;;;;;;;1.60;99.90;;;;;;21035084;28;20043;-80
2023/12/31 08:28:59;;;;;;;;;;;1.80;99.90;;;;;;21026648;28;19912;-79
2023/12/31 08:39:00;;;;;;;;;;;2.00;99.90;;;;;;21028551;28;20006;-79
2023/12/31 08:49:01;;;;;;;;;;;2.20;99.90;;;;;;21032030;28;19908;-79
2023/12/31 08:59:02;;;;;;;;;;;2.40;99.90;;;;;;21020357;28;19912;-78
2023/12/31 09:09:04;;;;;;;;;;;2.60;99.90;;;;;;21012186;28;19934;-80
2023/12/31 09:19:05;;;;;;;;;;;2.70;99.90;;;;;;21028867;28;19919;-78
2023/12/31 09:29:05;;;;;;;;;;;2.80;99.90;;;;;;21028335;28;19908;-79
2023/12/31 09:39:06;;;;;;;;;;;2.90;99.90;;;;;;20989160;28;19920;-79
2023/12/31 09:49:14;;;;;;;;;;;3.20;99.90;;;;;;21137752;27;19935;-78
2023/12/31 09:59:15;;;;;;;;;;;3.00;99.90;;;;;;21112763;28;20006;-78
2023/12/31 10:09:17;;;;;;;;;;;3.00;99.90;;;;;;21114857;28;20278;-77
2023/12/31 10:19:19;;;;;;;;;;;3.30;99.90;;;;;;21095550;28;19965;-78
2023/12/31 10:29:20;;;;;;;;;;;3.80;99.90;;;;;;21094122;28;20008;-79
2023/12/31 10:39:27;;;;;;;;;;;3.90;99.90;;;;;;21096264;28;20315;-78
2023/12/31 10:49:29;;;;;;;;;;;3.80;99.90;;;;;;21115435;28;19927;-78
2023/12/31 10:59:31;;;;;;;;;;;3.40;99.90;;;;;;21086385;28;19919;-79
2023/12/31 11:09:33;;;;;;;;;;;3.20;99.90;;;;;;21080029;28;19920;-81
2023/12/31 11:19:53;;;;;;;;;;;3.60;99.90;;;;;;21074135;28;20007;-79
2023/12/31 11:29:54;;;;;;;;;;;5.80;99.90;;;;;;21071258;28;20414;-80
2023/12/31 11:39:55;;;;;;;;;;;5.90;99.90;;;;;;21066666;28;19938;-81
2023/12/31 11:49:59;;;;;;;;;;;5.70;99.90;;;;;;21064432;28;20007;-82
2023/12/31 12:00:00;;;;;;;;;;;5.60;99.90;;;;;;21040309;28;20494;-79
2023/12/31 12:10:03;;;;;;;;;;;5.50;99.90;;;;;;21053327;28;19916;-80
2023/12/31 12:20:04;;;;;;;;;;;5.40;99.90;;;;;;21058148;28;19942;-80
2023/12/31 12:30:05;;;;;;;;;;;5.20;99.90;;;;;;21030962;28;19912;-78
2023/12/31 12:40:06;;;;;;;;;;;5.10;99.90;;;;;;21026381;28;19921;-79
2023/12/31 12:50:07;;;;;;;;;;;5.10;99.90;;;;;;21039314;28;19912;-81
2023/12/31 13:00:10;;;;;;;;;;;5.10;99.90;;;;;;21011545;28;19920;-79
2023/12/31 13:10:11;;;;;;;;;;;5.00;99.90;;;;;;21014041;28;20396;-81
2023/12/31 13:20:12;;;;;;;;;;;5.10;99.90;;;;;;21019048;28;19943;-76
2023/12/31 13:30:13;;;;;;;;;;;5.00;99.90;;;;;;21011781;28;19969;-78
2023/12/31 13:40:13;;;;;;;;;;;5.00;99.90;;;;;;21008292;28;19927;-78
2023/12/31 13:50:14;;;;;;;;;;;5.00;99.90;;;;;;21044966;28;19919;-81
2023/12/31 14:00:15;;;;;;;;;;;5.00;99.90;;;;;;21046358;28;20371;-78
2023/12/31 14:10:16;;;;;;;;;;;4.90;99.90;;;;;;21018498;28;20007;-80
2023/12/31 14:20:17;;;;;;;;;;;4.90;99.90;;;;;;21042270;28;19916;-79
2023/12/31 14:30:18;;;;;;;;;;;4.80;99.90;;;;;;21043107;28;19951;-80
2023/12/31 14:40:19;;;;;;;;;;;4.80;99.90;;;;;;21049303;28;19956;-79
2023/12/31 14:50:19;;;;;;;;;;;4.90;99.90;;;;;;21056685;28;19913;-80
2023/12/31 15:00:20;;;;;;;;;;;4.80;99.90;;;;;;21045266;28;19917;-80
2023/12/31 15:10:21;;;;;;;;;;;4.80;99.90;;;;;;21021945;28;20360;-79
2023/12/31 15:20:21;;;;;;;;;;;4.80;99.90;;;;;;21026060;28;19924;-81
2023/12/31 15:30:22;;;;;;;;;;;4.80;99.90;;;;;;21038297;28;19919;-80
2023/12/31 15:40:22;;;;;;;;;;;4.80;99.90;;;;;;21009689;28;19966;-81
2023/12/31 15:50:23;;;;;;;;;;;4.90;99.90;;;;;;21018753;28;19920;-81
2023/12/31 16:00:24;;;;;;;;;;;5.00;99.90;;;;;;21020900;28;19916;-81
2023/12/31 16:10:25;;;;;;;;;;;4.90;99.90;;;;;;21116259;28;20012;-79
2023/12/31 16:20:25;;;;;;;;;;;4.80;99.90;;;;;;21108284;28;19916;-80
2023/12/31 16:30:26;;;;;;;;;;;4.80;99.90;;;;;;21104934;28;19931;-80
2023/12/31 16:40:27;;;;;;;;;;;4.80;99.90;;;;;;21144362;28;19920;-80
2023/12/31 16:50:27;;;;;;;;;;;4.60;99.90;;;;;;21177289;28;19915;-81
2023/12/31 17:00:28;;;;;;;;;;;4.50;99.90;;;;;;21139536;28;19920;-81
2023/12/31 17:10:29;;;;;;;;;;;4.10;99.90;;;;;;21167824;28;19923;-80
2023/12/31 17:20:30;;;;;;;;;;;4.00;99.90;;;;;;21142162;28;19931;-80
2023/12/31 17:30:30;;;;;;;;;;;4.10;99.90;;;;;;21157742;28;19915;-81
2023/12/31 17:40:31;;;;;;;;;;;3.90;99.90;;;;;;21083645;28;19967;-80
2023/12/31 17:50:31;;;;;;;;;;;3.60;99.90;;;;;;21111316;28;19916;-80
2023/12/31 18:00:32;;;;;;;;;;;3.50;99.90;;;;;;21115699;28;19916;-81
2023/12/31 18:10:33;;;;;;;;;;;3.50;99.90;;;;;;21133072;28;19936;-78
2023/12/31 18:20:34;;;;;;;;;;;3.60;99.90;;;;;;21136892;28;20293;-81
2023/12/31 18:30:36;;;;;;;;;;;3.60;99.90;;;;;;21127421;28;19958;-80
2023/12/31 18:40:39;;;;;;;;;;;3.60;99.90;;;;;;21121693;28;19920;-80
2023/12/31 18:50:42;;;;;;;;;;;3.60;99.90;;;;;;21122764;28;19912;-82
2023/12/31 19:00:43;;;;;;;;;;;3.30;99.90;;;;;;21135344;28;19920;-81
2023/12/31 19:10:44;;;;;;;;;;;3.20;99.90;;;;;;21122887;28;19957;-79
2023/12/31 19:20:45;;;;;;;;;;;3.00;99.90;;;;;;21120261;28;19923;-80
2023/12/31 19:30:45;;;;;;;;;;;2.80;99.90;;;;;;21124712;28;20007;-80
2023/12/31 19:40:46;;;;;;;;;;;2.30;99.90;;;;;;21126162;28;19916;-81
2023/12/31 19:50:48;;;;;;;;;;;2.30;99.90;;;;;;21117149;28;19912;-81
2023/12/31 20:00:49;;;;;;;;;;;2.10;99.90;;;;;;21106967;28;19919;-81
2023/12/31 20:10:51;;;;;;;;;;;2.10;99.90;;;;;;21120841;28;20292;-82
2023/12/31 20:20:51;;;;;;;;;;;1.90;99.90;;;;;;21120626;28;20003;-82
2023/12/31 20:30:52;;;;;;;;;;;1.90;99.90;;;;;;21098534;28;20298;-82
2023/12/31 20:40:53;;;;;;;;;;;2.00;99.90;;;;;;21116502;28;19916;-81
2023/12/31 20:50:53;;;;;;;;;;;1.40;99.90;;;;;;21117451;28;19911;-80
2023/12/31 21:00:54;;;;;;;;;;;1.60;99.90;;;;;;21119252;28;19916;-79
2023/12/31 21:10:56;;;;;;;;;;;1.20;99.90;;;;;;21116507;28;19919;-82
2023/12/31 21:20:57;;;;;;;;;;;1.30;99.90;;;;;;21113957;28;20441;-79
2023/12/31 21:30:58;;;;;;;;;;;1.30;99.90;;;;;;21110359;28;19990;-82
2023/12/31 21:40:58;;;;;;;;;;;1.40;99.90;;;;;;21137300;28;19916;-82
2023/12/31 21:50:59;;;;;;;;;;;1.50;99.90;;;;;;21119575;28;19916;-82
2023/12/31 22:01:00;;;;;;;;;;;1.40;99.90;;;;;;21096553;28;19938;-80
2023/12/31 22:11:01;;;;;;;;;;;1.20;99.90;;;;;;21115002;28;19973;-82
2023/12/31 22:21:02;;;;;;;;;;;1.30;99.90;;;;;;21104067;28;19920;-77
2023/12/31 22:31:02;;;;;;;;;;;1.30;99.90;;;;;;21115370;28;19958;-81
2023/12/31 22:41:03;;;;;;;;;;;1.30;99.90;;;;;;21132175;28;19916;-81
2023/12/31 22:51:04;;;;;;;;;;;1.10;99.90;;;;;;21117801;28;19968;-80
2023/12/31 23:01:04;;;;;;;;;;;1.40;99.90;;;;;;21116295;28;19999;-80
2023/12/31 23:11:05;;;;;;;;;;;1.90;99.90;;;;;;21128532;28;19918;-80
2023/12/31 23:21:09;;;;;;;;;;;1.30;99.90;;;;;;21115487;28;20271;-79
2023/12/31 23:31:10;;;;;;;;;;;1.30;99.90;;;;;;21110878;28;20317;-79
2023/12/31 23:41:11;;;;;;;;;;;1.50;99.90;;;;;;21120729;28;19923;-80
2023/12/31 23:51:11;;;;;;;;;;;1.50;99.90;;;;;;21112110;28;20034;-81
